createdAt,value
2019-06-26T00:01:24.023Z,23.32
2019-06-26T00:03:52.438Z,23.34
2019-06-26T00:06:20.867Z,23.28
2019-06-26T00:08:49.348Z,23.26
2019-06-26T00:11:17.780Z,23.25
2019-06-26T00:13:46.216Z,23.23
2019-06-26T00:16:14.640Z,23.20
2019-06-26T00:18:43.053Z,23.16
2019-06-26T00:21:11.481Z,23.13
2019-06-26T00:23:39.890Z,23.12
2019-06-26T00:26:08.335Z,23.13
2019-06-26T00:28:36.743Z,23.10
2019-06-26T00:31:05.187Z,23.08
2019-06-26T00:33:33.575Z,23.03
2019-06-26T00:36:02.003Z,23.06
2019-06-26T00:38:30.410Z,23.06
2019-06-26T00:40:58.825Z,23.08
2019-06-26T00:43:41.450Z,23.02
2019-06-26T00:45:57.387Z,23.01
2019-06-26T00:48:25.785Z,22.95
2019-06-26T00:50:54.218Z,22.96
2019-06-26T00:53:22.654Z,23.00
2019-06-26T00:55:51.078Z,22.95
2019-06-26T00:58:19.493Z,22.95
2019-06-26T01:00:52.158Z,22.90
2019-06-26T01:03:20.635Z,22.90
2019-06-26T01:05:49.063Z,22.93
2019-06-26T01:08:17.482Z,22.89
2019-06-26T01:10:45.931Z,22.84
2019-06-26T01:13:14.351Z,22.74
2019-06-26T01:15:42.839Z,22.77
2019-06-26T01:18:11.241Z,22.76
2019-06-26T01:20:39.668Z,22.76
2019-06-26T01:23:08.079Z,22.68
2019-06-26T01:25:36.575Z,22.66
2019-06-26T01:28:04.927Z,22.67
2019-06-26T01:30:33.356Z,22.66
2019-06-26T01:33:01.788Z,22.68
2019-06-26T01:35:30.234Z,22.68
2019-06-26T01:37:58.650Z,22.63
2019-06-26T01:40:27.074Z,22.62
2019-06-26T01:42:55.487Z,22.62
2019-06-26T01:45:23.900Z,22.65
2019-06-26T01:47:52.331Z,22.63
2019-06-26T01:50:20.882Z,22.66
2019-06-26T01:52:49.309Z,22.63
2019-06-26T01:55:17.785Z,22.64
2019-06-26T01:57:46.232Z,22.61
2019-06-26T02:00:16.577Z,22.62
2019-06-26T02:02:44.986Z,22.60
2019-06-26T02:05:13.632Z,22.60
2019-06-26T02:07:42.093Z,22.59
2019-06-26T02:10:11.027Z,22.56
2019-06-26T02:12:39.464Z,22.54
2019-06-26T02:15:08.100Z,22.54
2019-06-26T02:17:36.548Z,22.52
2019-06-26T02:20:07.460Z,22.53
2019-06-26T02:22:35.880Z,22.53
2019-06-26T02:25:05.833Z,22.57
2019-06-26T02:27:34.500Z,22.56
2019-06-26T02:30:02.986Z,22.54
2019-06-26T02:32:31.474Z,22.54
2019-06-26T02:34:59.890Z,22.56
2019-06-26T02:37:28.311Z,22.57
2019-06-26T02:39:56.724Z,22.54
2019-06-26T02:42:25.148Z,22.60
2019-06-26T02:44:54.574Z,22.58
2019-06-26T02:47:23.260Z,22.58
2019-06-26T02:49:51.680Z,22.54
2019-06-26T02:52:20.098Z,22.53
2019-06-26T02:54:48.509Z,22.46
2019-06-26T02:57:16.941Z,22.51
2019-06-26T02:59:45.355Z,22.52
2019-06-26T03:02:13.777Z,22.49
2019-06-26T03:04:42.185Z,22.47
2019-06-26T03:07:10.607Z,22.50
2019-06-26T03:09:39.016Z,22.51
2019-06-26T03:12:07.480Z,22.53
2019-06-26T03:14:35.870Z,22.59
2019-06-26T03:17:04.350Z,22.58
2019-06-26T03:19:32.765Z,22.57
2019-06-26T03:22:01.187Z,22.58
2019-06-26T03:24:29.602Z,22.60
2019-06-26T03:26:58.025Z,22.56
2019-06-26T03:29:26.435Z,22.56
2019-06-26T03:31:54.859Z,22.61
2019-06-26T03:34:23.269Z,22.60
2019-06-26T03:36:51.687Z,22.65
2019-06-26T03:39:20.105Z,22.67
2019-06-26T03:41:48.585Z,22.69
2019-06-26T03:44:17.015Z,22.72
2019-06-26T03:46:45.444Z,22.75
2019-06-26T03:49:13.948Z,22.76
2019-06-26T03:51:42.346Z,22.82
2019-06-26T03:54:10.793Z,22.87
2019-06-26T03:56:39.183Z,22.88
2019-06-26T03:59:07.609Z,22.89
2019-06-26T04:01:36.022Z,22.92
2019-06-26T04:04:04.435Z,22.93
2019-06-26T04:06:32.843Z,22.91
2019-06-26T04:09:01.280Z,22.96
2019-06-26T04:11:29.688Z,22.98
2019-06-26T04:13:58.127Z,23.04
2019-06-26T04:16:26.533Z,23.08
2019-06-26T04:18:54.936Z,23.12
2019-06-26T04:21:23.351Z,23.16
2019-06-26T04:23:51.774Z,23.22
2019-06-26T04:26:20.182Z,23.26
2019-06-26T04:28:48.599Z,23.31
2019-06-26T04:31:17.010Z,23.35
2019-06-26T04:33:45.426Z,23.40
2019-06-26T04:36:13.835Z,23.43
2019-06-26T04:38:42.257Z,23.47
2019-06-26T04:41:10.672Z,23.49
2019-06-26T04:43:39.095Z,23.57
2019-06-26T04:46:07.500Z,23.63
2019-06-26T04:48:35.922Z,23.66
2019-06-26T04:51:04.603Z,23.74
2019-06-26T04:53:33.035Z,23.81
2019-06-26T04:56:01.438Z,23.86
2019-06-26T04:58:29.858Z,23.94
2019-06-26T05:00:58.281Z,24.05
2019-06-26T05:03:26.698Z,24.10
2019-06-26T05:05:55.106Z,24.20
2019-06-26T05:08:23.527Z,24.28
2019-06-26T05:10:51.934Z,24.32
2019-06-26T05:13:20.353Z,24.36
2019-06-26T05:15:48.768Z,24.50
2019-06-26T05:18:17.201Z,24.58
2019-06-26T05:20:45.635Z,24.63
2019-06-26T05:23:14.057Z,24.76
2019-06-26T05:25:43.070Z,24.92
2019-06-26T05:28:11.493Z,25.03
2019-06-26T05:30:39.910Z,25.15
2019-06-26T05:33:08.327Z,25.29
2019-06-26T05:35:36.736Z,25.41
2019-06-26T05:38:05.167Z,25.52
2019-06-26T05:40:33.736Z,25.67
2019-06-26T05:43:02.191Z,25.87
2019-06-26T05:45:30.634Z,25.97
2019-06-26T05:47:59.025Z,26.11
2019-06-26T05:50:27.501Z,26.19
2019-06-26T05:52:55.936Z,26.30
2019-06-26T05:55:24.357Z,26.36
2019-06-26T05:57:52.845Z,26.50
2019-06-26T06:00:21.976Z,26.66
2019-06-26T06:02:53.708Z,26.77
2019-06-26T06:05:20.543Z,26.87
2019-06-26T06:07:48.949Z,27.05
2019-06-26T06:10:17.529Z,27.20
2019-06-26T06:12:45.935Z,27.26
2019-06-26T06:15:15.395Z,27.42
2019-06-26T06:17:43.811Z,27.63
2019-06-26T06:20:14.227Z,27.83
2019-06-26T06:22:42.638Z,28.04
2019-06-26T06:25:11.415Z,28.23
2019-06-26T06:27:39.811Z,28.41
2019-06-26T06:30:08.778Z,28.58
2019-06-26T06:32:37.191Z,28.74
2019-06-26T06:35:07.577Z,28.81
2019-06-26T06:37:35.959Z,28.85
2019-06-26T06:40:07.562Z,28.90
2019-06-26T06:42:35.963Z,28.95
2019-06-26T06:45:06.992Z,29.07
2019-06-26T06:47:35.435Z,29.17
2019-06-26T06:50:05.006Z,29.17
2019-06-26T06:52:33.421Z,29.21
2019-06-26T06:55:01.849Z,29.34
2019-06-26T06:57:30.253Z,29.42
2019-06-26T06:59:58.677Z,29.45
2019-06-26T07:02:27.092Z,29.49
2019-06-26T07:04:55.525Z,29.48
2019-06-26T07:07:23.935Z,29.48
2019-06-26T07:09:52.388Z,29.55
2019-06-26T07:12:21.115Z,29.61
2019-06-26T07:14:49.654Z,29.84
2019-06-26T07:17:21.156Z,30.07
2019-06-26T07:19:48.198Z,30.65
2019-06-26T07:22:16.613Z,31.01
2019-06-26T07:24:45.060Z,30.87
2019-06-26T07:27:13.552Z,30.95
2019-06-26T07:29:41.954Z,31.06
2019-06-26T07:32:10.367Z,31.02
2019-06-26T07:34:38.792Z,31.18
2019-06-26T07:37:07.198Z,31.07
2019-06-26T07:39:35.758Z,31.29
2019-06-26T07:42:04.177Z,31.32
2019-06-26T07:44:32.601Z,31.38
2019-06-26T07:47:01.010Z,31.40
2019-06-26T07:49:29.441Z,31.24
2019-06-26T07:51:57.863Z,31.14
2019-06-26T07:54:26.304Z,31.29
2019-06-26T07:56:54.738Z,31.35
2019-06-26T07:59:23.156Z,31.61
2019-06-26T08:01:51.622Z,31.69
2019-06-26T08:04:20.051Z,31.55
2019-06-26T08:06:48.599Z,31.38
2019-06-26T08:09:17.222Z,31.40
2019-06-26T08:11:45.623Z,31.51
2019-06-26T08:14:14.046Z,31.43
2019-06-26T08:16:42.457Z,31.35
2019-06-26T08:19:10.900Z,31.42
2019-06-26T08:21:39.318Z,31.21
2019-06-26T08:24:07.730Z,31.47
2019-06-26T08:26:36.149Z,31.55
2019-06-26T08:29:04.562Z,31.37
2019-06-26T08:31:32.998Z,31.38
2019-06-26T08:34:01.452Z,31.38
2019-06-26T08:36:29.862Z,31.34
2019-06-26T08:38:58.293Z,31.30
2019-06-26T08:41:26.722Z,31.59
2019-06-26T08:43:55.134Z,31.64
2019-06-26T08:46:23.556Z,31.67
2019-06-26T08:48:52.316Z,31.58
2019-06-26T08:51:21.921Z,31.72
2019-06-26T08:53:50.511Z,31.64
2019-06-26T08:56:18.942Z,31.56
2019-06-26T08:58:47.383Z,31.78
2019-06-26T09:01:15.802Z,31.84
2019-06-26T09:03:44.218Z,31.87
2019-06-26T09:06:12.644Z,32.01
2019-06-26T09:08:41.065Z,32.12
2019-06-26T09:11:09.487Z,32.01
2019-06-26T09:13:37.906Z,31.84
2019-06-26T09:16:06.333Z,31.79
2019-06-26T09:18:36.171Z,31.81
2019-06-26T09:21:04.849Z,31.82
2019-06-26T09:23:33.261Z,32.01
2019-06-26T09:26:01.723Z,32.02
2019-06-26T09:28:30.096Z,32.20
2019-06-26T09:30:58.521Z,32.28
2019-06-26T09:33:26.927Z,32.17
2019-06-26T09:35:55.330Z,32.02
2019-06-26T09:38:23.772Z,32.05
2019-06-26T09:40:52.213Z,32.31
2019-06-26T09:43:20.631Z,32.42
2019-06-26T09:45:49.140Z,32.32
2019-06-26T09:48:17.537Z,32.30
2019-06-26T09:50:45.958Z,32.32
2019-06-26T09:53:14.575Z,32.28
2019-06-26T09:55:43.189Z,32.55
2019-06-26T09:58:13.342Z,32.88
2019-06-26T10:00:41.762Z,32.91
2019-06-26T10:03:10.177Z,33.26
2019-06-26T10:05:38.604Z,33.23
2019-06-26T10:08:07.027Z,33.19
2019-06-26T10:10:35.449Z,33.07
2019-06-26T10:13:03.863Z,33.10
2019-06-26T10:15:32.395Z,33.25
2019-06-26T10:18:00.788Z,33.25
2019-06-26T10:20:29.221Z,33.58
2019-06-26T10:22:57.686Z,33.61
2019-06-26T10:25:26.100Z,33.77
2019-06-26T10:27:54.515Z,33.53
2019-06-26T10:30:23.035Z,33.46
2019-06-26T10:32:51.442Z,33.42
2019-06-26T10:35:19.998Z,33.55
2019-06-26T10:37:48.428Z,33.77
2019-06-26T10:40:17.181Z,34.02
2019-06-26T10:42:45.638Z,33.85
2019-06-26T10:45:14.610Z,33.83
2019-06-26T10:47:43.010Z,33.98
2019-06-26T10:50:11.968Z,33.89
2019-06-26T10:52:40.392Z,34.02
2019-06-26T10:55:09.754Z,34.24
2019-06-26T10:57:38.175Z,34.33
2019-06-26T11:00:10.918Z,34.14
2019-06-26T11:02:39.575Z,34.13
2019-06-26T11:05:08.719Z,34.15
2019-06-26T11:07:37.160Z,34.35
2019-06-26T11:10:09.344Z,34.35
2019-06-26T11:12:37.760Z,34.26
2019-06-26T11:15:08.405Z,34.29
2019-06-26T11:17:36.839Z,34.21
2019-06-26T11:20:08.848Z,34.41
2019-06-26T11:22:37.341Z,34.43
2019-06-26T11:25:07.705Z,34.58
2019-06-26T11:27:36.248Z,34.48
2019-06-26T11:30:10.367Z,34.54
2019-06-26T11:32:38.792Z,34.88
2019-06-26T11:35:11.411Z,35.02
2019-06-26T11:37:39.840Z,34.98
2019-06-26T11:40:09.193Z,35.02
2019-06-26T11:42:37.625Z,34.86
2019-06-26T11:45:09.583Z,34.55
2019-06-26T11:47:38.182Z,34.25
2019-06-26T11:50:08.587Z,34.49
2019-06-26T11:52:37.378Z,34.61
2019-06-26T11:55:08.029Z,34.68
2019-06-26T11:57:37.202Z,34.80
2019-06-26T12:00:11.911Z,34.91
2019-06-26T12:02:40.437Z,34.94
2019-06-26T12:05:09.220Z,35.12
2019-06-26T12:07:37.635Z,35.31
2019-06-26T12:10:08.772Z,35.36
2019-06-26T12:12:37.363Z,35.59
2019-06-26T12:15:06.829Z,35.84
2019-06-26T12:17:35.266Z,35.90
2019-06-26T12:20:17.947Z,35.85
2019-06-26T12:22:35.147Z,35.90
2019-06-26T12:25:03.698Z,35.57
2019-06-26T12:27:32.250Z,35.38
2019-06-26T12:30:00.623Z,35.34
2019-06-26T12:32:29.048Z,35.44
2019-06-26T12:34:57.466Z,35.16
2019-06-26T12:37:37.064Z,35.12
2019-06-26T12:39:56.036Z,35.49
2019-06-26T12:42:24.466Z,35.38
2019-06-26T12:44:52.877Z,35.05
2019-06-26T12:47:21.308Z,34.94
2019-06-26T12:49:49.716Z,35.03
2019-06-26T12:52:18.148Z,34.94
2019-06-26T12:54:46.552Z,35.38
2019-06-26T12:57:14.986Z,35.37
2019-06-26T12:59:56.830Z,35.33
2019-06-26T13:02:13.543Z,35.33
2019-06-26T13:04:44.631Z,35.52
2019-06-26T13:07:12.088Z,35.59
2019-06-26T13:09:40.509Z,35.75
2019-06-26T13:12:08.923Z,35.56
2019-06-26T13:14:37.348Z,35.26
2019-06-26T13:17:05.768Z,35.14
2019-06-26T13:19:34.208Z,35.24
2019-06-26T13:22:02.644Z,35.52
2019-06-26T13:24:31.024Z,35.39
2019-06-26T13:26:59.441Z,35.45
2019-06-26T13:29:27.860Z,35.76
2019-06-26T13:31:56.281Z,35.49
2019-06-26T13:34:24.706Z,35.28
2019-06-26T13:36:53.126Z,35.38
2019-06-26T13:39:21.554Z,35.47
2019-06-26T13:41:49.958Z,35.71
2019-06-26T13:44:18.387Z,35.46
2019-06-26T13:46:46.796Z,35.71
2019-06-26T13:49:16.667Z,35.81
2019-06-26T13:51:45.222Z,35.94
2019-06-26T13:54:13.646Z,35.42
2019-06-26T13:56:42.069Z,35.57
2019-06-26T13:59:10.492Z,35.98
2019-06-26T14:01:38.899Z,36.37
2019-06-26T14:04:07.343Z,35.92
2019-06-26T14:06:35.741Z,35.69
2019-06-26T14:09:05.900Z,35.77
2019-06-26T14:11:34.307Z,36.15
2019-06-26T14:14:02.736Z,35.94
2019-06-26T14:16:31.140Z,35.96
2019-06-26T14:18:59.570Z,36.25
2019-06-26T14:21:27.998Z,36.56
2019-06-26T14:23:56.434Z,36.34
2019-06-26T14:26:24.839Z,36.53
2019-06-26T14:28:54.136Z,36.15
2019-06-26T14:31:22.557Z,36.38
2019-06-26T14:33:50.981Z,36.53
2019-06-26T14:36:22.359Z,36.55
2019-06-26T14:38:49.535Z,36.57
2019-06-26T14:41:17.959Z,36.32
2019-06-26T14:43:46.440Z,36.21
2019-06-26T14:46:14.870Z,36.24
2019-06-26T14:48:43.277Z,36.39
2019-06-26T14:51:11.675Z,36.42
2019-06-26T14:53:40.108Z,36.28
2019-06-26T14:56:08.516Z,36.35
2019-06-26T14:58:36.943Z,36.30
2019-06-26T15:01:05.357Z,36.18
2019-06-26T15:03:33.771Z,36.01
2019-06-26T15:06:15.749Z,35.80
2019-06-26T15:08:32.325Z,36.08
2019-06-26T15:11:00.735Z,36.04
2019-06-26T15:13:29.167Z,36.01
2019-06-26T15:15:57.580Z,36.22
2019-06-26T15:18:25.995Z,36.38
2019-06-26T15:20:54.425Z,36.56
2019-06-26T15:23:22.844Z,36.58
2019-06-26T15:25:51.301Z,36.58
2019-06-26T15:28:19.728Z,36.41
2019-06-26T15:30:48.148Z,36.55
2019-06-26T15:33:16.566Z,36.75
2019-06-26T15:35:44.990Z,36.04
2019-06-26T15:38:13.409Z,36.09
2019-06-26T15:40:41.838Z,36.30
2019-06-26T15:43:10.257Z,36.07
2019-06-26T15:45:38.853Z,36.03
2019-06-26T15:48:07.287Z,36.05
2019-06-26T15:50:35.702Z,35.98
2019-06-26T15:53:04.188Z,35.62
2019-06-26T15:55:32.806Z,35.57
2019-06-26T15:58:01.224Z,35.87
2019-06-26T16:06:54.931Z,36.20
2019-06-26T16:09:23.358Z,35.95
2019-06-26T16:11:51.765Z,35.77
2019-06-26T16:14:20.196Z,35.84
2019-06-26T16:16:50.263Z,36.11
2019-06-26T16:19:20.332Z,36.03
2019-06-26T16:21:48.746Z,35.53
2019-06-26T16:24:17.178Z,35.24
2019-06-26T16:26:45.655Z,35.21
2019-06-26T16:29:14.084Z,35.47
2019-06-26T16:31:42.501Z,35.29
2019-06-26T16:34:10.921Z,35.66
2019-06-26T16:36:39.362Z,35.83
2019-06-26T16:39:08.515Z,35.95
2019-06-26T16:41:37.312Z,35.62
2019-06-26T16:44:06.865Z,35.42
2019-06-26T16:46:35.359Z,35.30
2019-06-26T16:49:03.769Z,34.99
2019-06-26T16:51:32.187Z,35.04
2019-06-26T16:54:00.602Z,34.97
2019-06-26T16:56:29.032Z,35.27
2019-06-26T16:58:57.447Z,35.34
2019-06-26T17:01:25.883Z,35.18
2019-06-26T17:03:54.290Z,34.91
2019-06-26T17:06:22.708Z,34.74
2019-06-26T17:08:51.130Z,34.82
2019-06-26T17:11:19.557Z,35.15
2019-06-26T17:13:47.988Z,35.36
2019-06-26T17:16:16.401Z,34.98
2019-06-26T17:18:44.843Z,34.81
2019-06-26T17:21:13.268Z,34.43
2019-06-26T17:23:41.695Z,34.36
2019-06-26T17:26:10.111Z,34.52
2019-06-26T17:28:38.521Z,34.01
2019-06-26T17:31:06.969Z,34.01
2019-06-26T17:33:35.402Z,34.49
2019-06-26T17:36:03.836Z,34.60
2019-06-26T17:38:32.240Z,34.32
2019-06-26T17:41:24.254Z,34.23
2019-06-26T17:43:52.670Z,33.65
2019-06-26T17:46:21.110Z,33.31
2019-06-26T17:48:49.519Z,33.10
2019-06-26T17:51:17.937Z,33.10
2019-06-26T17:53:46.346Z,32.90
2019-06-26T17:56:14.768Z,32.89
2019-06-26T17:58:43.251Z,32.67
2019-06-26T18:01:11.682Z,32.46
2019-06-26T18:03:40.098Z,32.01
2019-06-26T18:06:08.540Z,31.50
2019-06-26T18:08:36.961Z,31.67
2019-06-26T18:11:05.408Z,31.54
2019-06-26T18:13:33.921Z,31.64
2019-06-26T18:16:02.306Z,31.85
2019-06-26T18:18:30.720Z,31.58
2019-06-26T18:20:59.149Z,31.11
2019-06-26T18:23:37.376Z,30.68
2019-06-26T18:26:11.759Z,30.09
2019-06-26T18:28:27.944Z,29.77
2019-06-26T18:30:56.351Z,30.02
2019-06-26T18:33:24.786Z,29.84
2019-06-26T18:35:53.214Z,29.76
2019-06-26T18:38:21.655Z,29.51
2019-06-26T18:40:50.156Z,29.00
2019-06-26T18:43:18.571Z,28.72
2019-06-26T18:45:47.008Z,28.59
2019-06-26T18:48:15.444Z,28.59
2019-06-26T18:50:43.868Z,28.65
2019-06-26T18:53:14.078Z,28.47
2019-06-26T18:55:48.366Z,28.41
2019-06-26T18:58:16.755Z,28.34
2019-06-26T19:00:45.186Z,28.12
2019-06-26T19:03:13.603Z,27.86
2019-06-26T19:05:42.043Z,27.60
2019-06-26T19:08:10.458Z,27.63
2019-06-26T19:10:38.879Z,27.43
2019-06-26T19:13:07.306Z,27.32
2019-06-26T19:15:35.733Z,26.96
2019-06-26T19:18:04.159Z,26.74
2019-06-26T19:20:33.913Z,26.66
2019-06-26T19:23:02.595Z,26.46
2019-06-26T19:25:31.021Z,26.28
2019-06-26T19:27:59.456Z,26.27
2019-06-26T19:30:27.881Z,26.15
2019-06-26T19:32:56.319Z,25.94
2019-06-26T19:35:24.774Z,25.90
2019-06-26T19:37:53.170Z,25.84
2019-06-26T19:40:24.011Z,25.72
2019-06-26T19:42:51.723Z,25.42
2019-06-26T19:45:20.305Z,25.33
2019-06-26T19:47:48.731Z,25.26
2019-06-26T19:50:18.476Z,25.18
2019-06-26T19:52:46.917Z,25.15
2019-06-26T19:55:15.583Z,25.05
2019-06-26T19:57:44.001Z,24.92
2019-06-26T20:00:12.654Z,24.91
2019-06-26T20:02:41.087Z,24.78
2019-06-26T20:05:09.846Z,24.66
2019-06-26T20:07:38.272Z,24.38
2019-06-26T20:10:07.536Z,24.28
2019-06-26T20:12:35.954Z,24.19
2019-06-26T20:15:06.966Z,24.14
2019-06-26T20:17:35.462Z,24.09
2019-06-26T20:20:06.235Z,24.05
2019-06-26T20:22:34.665Z,23.83
2019-06-26T20:25:03.348Z,23.63
2019-06-26T20:27:31.790Z,23.56
2019-06-26T20:30:00.240Z,23.54
2019-06-26T20:32:28.637Z,23.40
2019-06-26T20:34:57.043Z,23.51
2019-06-26T20:37:25.464Z,23.59
2019-06-26T20:39:53.875Z,23.63
2019-06-26T20:42:22.309Z,23.58
2019-06-26T20:44:50.723Z,23.45
2019-06-26T20:47:19.150Z,23.18
2019-06-26T20:49:53.314Z,23.17
2019-06-26T20:52:17.724Z,22.98
2019-06-26T20:55:00.089Z,23.00
2019-06-26T20:57:16.357Z,22.91
2019-06-26T20:59:44.765Z,22.81
2019-06-26T21:02:13.200Z,22.89
2019-06-26T21:04:41.678Z,22.92
2019-06-26T21:07:10.115Z,22.85
2019-06-26T21:09:38.781Z,22.76
2019-06-26T21:12:07.224Z,22.74
2019-06-26T21:14:35.670Z,22.78
2019-06-26T21:17:04.119Z,22.72
2019-06-26T21:19:32.541Z,22.72
2019-06-26T21:22:00.982Z,22.42
2019-06-26T21:24:29.446Z,22.37
2019-06-26T21:26:57.875Z,22.45
2019-06-26T21:29:26.330Z,22.32
2019-06-26T21:31:54.757Z,22.41
2019-06-26T21:34:23.182Z,22.42
2019-06-26T21:36:51.611Z,22.31
2019-06-26T21:39:20.042Z,22.18
2019-06-26T21:41:48.461Z,22.03
2019-06-26T21:44:16.926Z,22.01
2019-06-26T21:46:45.345Z,21.95
2019-06-26T21:49:13.772Z,21.92
2019-06-26T21:51:42.219Z,21.92
2019-06-26T21:54:10.629Z,21.82
2019-06-26T21:56:39.050Z,21.59
2019-06-26T21:59:07.519Z,21.62
2019-06-26T22:01:36.074Z,21.47
2019-06-26T22:04:05.527Z,21.39
2019-06-26T22:06:33.987Z,21.39
2019-06-26T22:09:02.443Z,21.35
2019-06-26T22:11:30.946Z,21.12
2019-06-26T22:13:59.387Z,21.04
2019-06-26T22:16:27.790Z,21.01
2019-06-26T22:18:56.223Z,21.03
2019-06-26T22:21:24.640Z,20.80
2019-06-26T22:23:53.068Z,20.63
2019-06-26T22:26:21.561Z,20.46
2019-06-26T22:28:49.989Z,20.24
2019-06-26T22:31:18.411Z,19.96
2019-06-26T22:33:46.849Z,19.99
2019-06-26T22:36:15.271Z,19.78
2019-06-26T22:38:43.697Z,19.58
2019-06-26T22:41:12.155Z,19.56
2019-06-26T22:43:40.567Z,19.51
2019-06-26T22:46:09.092Z,19.70
2019-06-26T22:48:37.515Z,19.45
2019-06-26T22:51:05.935Z,19.28
2019-06-26T22:53:34.377Z,19.07
2019-06-26T22:56:07.482Z,18.97
2019-06-26T22:58:33.361Z,18.75
2019-06-26T23:01:01.784Z,18.80
2019-06-26T23:03:30.220Z,18.91
2019-06-26T23:05:58.637Z,18.78
2019-06-26T23:08:27.082Z,18.57
2019-06-26T23:10:55.509Z,18.47
2019-06-26T23:13:23.946Z,18.38
2019-06-26T23:15:52.368Z,18.36
2019-06-26T23:18:20.801Z,18.23
2019-06-26T23:20:49.219Z,18.30
2019-06-26T23:23:17.664Z,18.09
2019-06-26T23:25:46.106Z,17.92
2019-06-26T23:28:14.519Z,18.00
2019-06-26T23:30:42.951Z,17.96
2019-06-26T23:33:11.443Z,18.04
2019-06-26T23:35:39.877Z,17.93
2019-06-26T23:38:08.298Z,17.73
2019-06-26T23:40:36.731Z,17.77
2019-06-26T23:43:05.152Z,17.85
2019-06-26T23:45:33.580Z,17.78
2019-06-26T23:48:02.013Z,17.60
2019-06-26T23:50:30.500Z,17.45
2019-06-26T23:52:58.912Z,17.43
2019-06-26T23:55:27.345Z,17.47
2019-06-26T23:57:59.484Z,17.48
